createdAt,value
2022-12-14T00:01:38.444Z,17.05
2022-12-14T00:04:05.512Z,17.88
2022-12-14T00:06:33.999Z,13.68
2022-12-14T00:09:03.397Z,16.20
2022-12-14T00:11:30.513Z,15.80
2022-12-14T00:14:00.033Z,17.92
2022-12-14T00:16:29.952Z,17.55
2022-12-14T00:18:58.865Z,17.90
2022-12-14T00:21:26.984Z,20.98
2022-12-14T00:23:54.868Z,19.15
2022-12-14T00:26:27.872Z,21.50
2022-12-14T00:28:56.119Z,18.95
2022-12-14T00:31:24.564Z,16.88
2022-12-14T00:33:52.666Z,15.07
2022-12-14T00:36:20.481Z,14.02
2022-12-14T00:38:47.665Z,15.82
2022-12-14T00:41:14.632Z,21.67
2022-12-14T00:43:41.967Z,17.55
2022-12-14T00:46:09.157Z,19.75
2022-12-14T00:48:36.286Z,15.25
2022-12-14T00:51:04.400Z,20.50
2022-12-14T00:53:31.582Z,18.13
2022-12-14T00:56:06.423Z,16.00
2022-12-14T00:58:33.872Z,17.77
2022-12-14T01:01:12.733Z,15.48
2022-12-14T01:03:40.277Z,16.98
2022-12-14T01:06:14.769Z,19.40
2022-12-14T01:08:41.813Z,16.40
2022-12-14T01:11:10.761Z,15.27
2022-12-14T01:13:38.923Z,22.95
2022-12-14T01:16:13.274Z,22.48
2022-12-14T01:18:42.616Z,16.08
2022-12-14T01:21:13.923Z,16.33
2022-12-14T01:23:41.504Z,14.07
2022-12-14T01:26:09.131Z,16.80
2022-12-14T01:28:36.478Z,20.95
2022-12-14T01:31:14.515Z,16.58
2022-12-14T01:33:41.741Z,14.82
2022-12-14T01:36:14.862Z,17.05
2022-12-14T01:38:41.927Z,16.02
2022-12-14T01:41:17.233Z,17.33
2022-12-14T01:43:56.503Z,23.10
2022-12-14T01:46:49.720Z,22.55
2022-12-14T01:49:39.513Z,18.42
2022-12-14T01:52:18.234Z,15.38
2022-12-14T01:54:56.632Z,23.48
2022-12-14T01:57:32.945Z,19.15
2022-12-14T02:00:06.982Z,19.13
2022-12-14T02:02:38.218Z,17.55
2022-12-14T02:05:06.893Z,15.75
2022-12-14T02:07:34.545Z,18.63
2022-12-14T02:10:04.565Z,20.25
2022-12-14T02:12:41.913Z,18.75
2022-12-14T02:15:09.777Z,21.05
2022-12-14T02:17:36.789Z,20.98
2022-12-14T02:20:04.448Z,20.92
2022-12-14T02:22:50.121Z,20.45
2022-12-14T02:25:54.476Z,17.95
2022-12-14T02:29:05.353Z,21.70
2022-12-14T02:31:49.826Z,18.48
2022-12-14T02:34:57.834Z,19.33
2022-12-14T02:37:42.719Z,17.38
2022-12-14T02:40:34.764Z,19.23
2022-12-14T02:43:27.701Z,17.48
2022-12-14T02:45:57.376Z,18.98
2022-12-14T02:48:36.705Z,20.13
2022-12-14T02:51:11.788Z,17.25
2022-12-14T02:53:54.558Z,18.33
2022-12-14T02:56:29.762Z,18.88
2022-12-14T02:58:58.017Z,19.65
2022-12-14T03:01:28.888Z,19.20
2022-12-14T03:03:56.164Z,22.52
2022-12-14T03:06:28.109Z,18.30
2022-12-14T03:09:07.945Z,16.92
2022-12-14T03:11:51.508Z,15.75
2022-12-14T03:14:25.479Z,20.08
2022-12-14T03:16:53.798Z,20.05
2022-12-14T03:19:35.612Z,14.98
2022-12-14T03:22:08.580Z,19.83
2022-12-14T03:24:43.508Z,16.15
2022-12-14T03:27:36.178Z,22.80
2022-12-14T03:30:18.411Z,22.75
2022-12-14T03:32:59.387Z,22.83
2022-12-14T03:35:39.496Z,21.23
2022-12-14T03:38:20.846Z,17.35
2022-12-14T03:41:17.314Z,16.05
2022-12-14T03:43:58.122Z,19.58
2022-12-14T03:46:53.100Z,19.20
2022-12-14T03:49:44.299Z,15.82
2022-12-14T03:52:44.133Z,20.35
2022-12-14T03:55:32.278Z,25.65
2022-12-14T03:58:28.828Z,23.60
2022-12-14T04:01:11.099Z,20.20
2022-12-14T04:03:40.899Z,20.77
2022-12-14T04:06:45.587Z,20.60
2022-12-14T04:09:46.017Z,17.83
2022-12-14T04:13:03.804Z,21.88
2022-12-14T04:15:54.511Z,23.02
2022-12-14T04:18:47.643Z,16.83
2022-12-14T04:21:41.526Z,16.08
2022-12-14T04:24:40.126Z,17.27
2022-12-14T04:27:15.556Z,22.88
2022-12-14T04:29:56.541Z,19.90
2022-12-14T04:32:39.959Z,20.73
2022-12-14T04:35:13.990Z,21.25
2022-12-14T04:37:45.629Z,19.90
2022-12-14T04:40:24.230Z,22.02
2022-12-14T04:43:04.981Z,22.10
2022-12-14T04:45:48.969Z,18.20
2022-12-14T04:48:23.258Z,21.85
2022-12-14T04:50:58.477Z,21.63
2022-12-14T04:53:29.403Z,18.00
2022-12-14T04:56:09.337Z,19.80
2022-12-14T04:58:37.429Z,21.92
2022-12-14T05:01:26.047Z,20.58
2022-12-14T05:04:12.301Z,18.77
2022-12-14T05:06:45.982Z,18.92
2022-12-14T05:09:33.432Z,19.23
2022-12-14T05:12:28.618Z,20.73
2022-12-14T05:15:21.852Z,20.48
2022-12-14T05:17:48.962Z,18.85
2022-12-14T05:20:23.010Z,17.77
2022-12-14T05:22:50.180Z,18.25
2022-12-14T05:25:17.636Z,18.45
2022-12-14T05:27:44.660Z,17.70
2022-12-14T05:30:12.096Z,20.73
2022-12-14T05:32:40.020Z,18.52
2022-12-14T05:35:09.018Z,15.95
2022-12-14T05:37:35.992Z,21.27
2022-12-14T05:40:02.981Z,19.83
2022-12-14T05:42:30.100Z,24.20
2022-12-14T05:44:57.089Z,15.77
2022-12-14T05:47:24.490Z,20.20
2022-12-14T05:49:51.676Z,22.50
2022-12-14T05:52:19.199Z,21.30
2022-12-14T05:54:46.453Z,20.00
2022-12-14T05:57:13.401Z,17.85
2022-12-14T05:59:40.372Z,20.58
2022-12-14T06:02:07.693Z,16.73
2022-12-14T06:04:35.347Z,18.65
2022-12-14T06:07:02.393Z,24.08
2022-12-14T06:09:29.360Z,23.88
2022-12-14T06:11:56.396Z,14.93
2022-12-14T06:14:24.589Z,19.67
2022-12-14T06:16:51.544Z,19.63
2022-12-14T06:19:19.252Z,17.65
2022-12-14T06:21:46.374Z,18.90
2022-12-14T06:24:14.073Z,15.45
2022-12-14T06:26:41.312Z,17.40
2022-12-14T06:29:13.579Z,22.70
2022-12-14T06:31:40.604Z,20.50
2022-12-14T06:34:09.332Z,17.65
2022-12-14T06:36:39.018Z,18.80
2022-12-14T06:39:10.765Z,20.58
2022-12-14T06:41:37.980Z,17.95
2022-12-14T06:44:08.603Z,17.92
2022-12-14T06:46:36.816Z,23.25
2022-12-14T06:49:06.092Z,19.13
2022-12-14T06:51:38.274Z,19.05
2022-12-14T06:54:05.271Z,17.70
2022-12-14T06:56:32.197Z,18.27
2022-12-14T06:58:59.320Z,17.73
2022-12-14T07:01:26.581Z,20.80
2022-12-14T07:03:56.154Z,15.93
2022-12-14T07:06:24.989Z,16.48
2022-12-14T07:08:57.957Z,17.75
2022-12-14T07:11:26.476Z,16.45
2022-12-14T07:13:54.741Z,19.35
2022-12-14T07:16:26.266Z,20.92
2022-12-14T07:18:55.399Z,20.60
2022-12-14T07:21:23.165Z,17.27
2022-12-14T07:23:52.571Z,16.98
2022-12-14T07:26:25.988Z,20.02
2022-12-14T07:28:53.855Z,17.77
2022-12-14T07:31:26.459Z,16.88
2022-12-14T07:33:56.012Z,14.60
2022-12-14T07:36:25.164Z,14.10
2022-12-14T07:38:52.682Z,17.95
2022-12-14T07:41:23.477Z,16.35
2022-12-14T07:43:52.321Z,19.58
2022-12-14T07:46:22.322Z,15.85
2022-12-14T07:48:52.101Z,16.05
2022-12-14T07:51:21.640Z,16.70
2022-12-14T07:53:50.201Z,16.42
2022-12-14T07:56:26.039Z,20.15
2022-12-14T07:58:56.352Z,17.05
2022-12-14T08:01:26.841Z,19.67
2022-12-14T08:03:56.386Z,17.45
2022-12-14T08:06:27.102Z,21.92
2022-12-14T08:08:54.794Z,17.95
2022-12-14T08:11:23.003Z,14.82
2022-12-14T08:14:01.786Z,17.73
2022-12-14T08:16:29.583Z,22.05
2022-12-14T08:18:58.670Z,17.63
2022-12-14T08:21:26.784Z,15.70
2022-12-14T08:23:55.023Z,19.98
2022-12-14T08:26:22.331Z,15.30
2022-12-14T08:28:49.354Z,21.55
2022-12-14T08:31:19.166Z,18.80
2022-12-14T08:33:47.312Z,18.75
2022-12-14T08:36:17.319Z,20.20
2022-12-14T08:38:44.893Z,22.55
2022-12-14T08:41:15.365Z,20.52
2022-12-14T08:43:43.789Z,17.27
2022-12-14T08:46:11.344Z,17.75
2022-12-14T08:48:38.391Z,17.27
2022-12-14T08:51:08.175Z,16.33
2022-12-14T08:53:36.710Z,17.98
2022-12-14T08:56:12.837Z,16.58
2022-12-14T08:58:40.986Z,17.60
2022-12-14T09:01:27.024Z,17.38
2022-12-14T09:04:05.163Z,18.50
2022-12-14T09:06:34.930Z,20.92
2022-12-14T09:09:01.918Z,20.92
2022-12-14T09:11:29.478Z,25.75
2022-12-14T09:13:57.024Z,20.13
2022-12-14T09:16:28.832Z,21.15
2022-12-14T09:18:55.988Z,26.20
2022-12-14T09:21:24.170Z,20.83
2022-12-14T09:23:57.373Z,20.02
2022-12-14T09:26:27.207Z,22.92
2022-12-14T09:28:56.509Z,17.00
2022-12-14T09:31:26.162Z,24.25
2022-12-14T09:33:55.104Z,19.65
2022-12-14T09:36:27.474Z,18.90
2022-12-14T09:38:56.966Z,22.42
2022-12-14T09:41:36.471Z,20.02
2022-12-14T09:44:19.856Z,20.38
2022-12-14T09:46:47.634Z,23.80
2022-12-14T09:49:31.072Z,17.35
2022-12-14T09:52:02.049Z,20.23
2022-12-14T09:54:33.584Z,16.88
2022-12-14T09:57:29.481Z,18.67
2022-12-14T09:59:56.893Z,19.92
2022-12-14T10:02:51.400Z,18.15
2022-12-14T10:05:21.378Z,18.45
2022-12-14T10:08:19.308Z,21.35
2022-12-14T10:10:56.777Z,19.27
2022-12-14T10:13:42.427Z,21.50
2022-12-14T10:16:12.120Z,17.88
2022-12-14T10:19:03.506Z,22.77
2022-12-14T10:21:46.533Z,21.63
2022-12-14T10:24:27.541Z,20.83
2022-12-14T10:26:55.903Z,22.98
2022-12-14T10:29:25.972Z,22.17
2022-12-14T10:32:05.276Z,24.35
2022-12-14T10:34:34.925Z,23.10
2022-12-14T10:37:20.378Z,22.67
2022-12-14T10:40:40.803Z,19.25
2022-12-14T10:43:31.228Z,19.80
2022-12-14T10:46:24.318Z,21.48
2022-12-14T10:49:22.177Z,20.55
2022-12-14T10:52:02.517Z,24.27
2022-12-14T10:55:03.405Z,22.60
2022-12-14T10:57:33.531Z,20.17
2022-12-14T11:00:23.930Z,24.25
2022-12-14T11:02:59.157Z,22.17
2022-12-14T11:05:44.068Z,23.85
2022-12-14T11:08:43.405Z,26.50
2022-12-14T11:11:46.711Z,21.85
2022-12-14T11:14:19.577Z,22.80
2022-12-14T11:16:59.313Z,24.27
2022-12-14T11:19:28.277Z,22.77
2022-12-14T11:22:22.288Z,23.65
2022-12-14T11:24:50.482Z,25.15
2022-12-14T11:27:24.664Z,21.35
2022-12-14T11:29:59.895Z,21.52
2022-12-14T11:32:36.411Z,22.30
2022-12-14T11:35:07.429Z,26.27
2022-12-14T11:37:38.159Z,19.50
2022-12-14T11:40:30.207Z,22.30
2022-12-14T11:43:07.679Z,23.33
2022-12-14T11:45:47.510Z,29.27
2022-12-14T11:48:47.884Z,24.20
2022-12-14T11:51:31.042Z,27.65
2022-12-14T11:57:22.190Z,24.13
2022-12-14T12:00:33.885Z,21.77
2022-12-14T12:03:07.001Z,21.08
2022-12-14T12:05:45.672Z,26.50
2022-12-14T12:08:33.032Z,22.42
2022-12-14T12:11:17.638Z,22.17
2022-12-14T12:14:15.900Z,29.75
2022-12-14T12:17:04.470Z,28.73
2022-12-14T12:19:50.007Z,22.08
2022-12-14T12:22:33.936Z,24.80
2022-12-14T12:25:29.723Z,23.60
2022-12-14T12:28:48.110Z,25.08
2022-12-14T12:31:44.567Z,21.92
2022-12-14T12:34:33.351Z,31.08
2022-12-14T12:37:45.795Z,23.27
2022-12-14T12:41:07.334Z,24.25
2022-12-14T12:44:06.945Z,21.08
2022-12-14T12:49:56.050Z,23.02
2022-12-14T12:52:48.411Z,23.73
2022-12-14T12:55:25.936Z,24.15
2022-12-14T12:58:06.066Z,22.05
2022-12-14T13:00:33.961Z,22.95
2022-12-14T13:03:23.308Z,25.52
2022-12-14T13:05:53.491Z,24.25
2022-12-14T13:08:30.309Z,21.13
2022-12-14T13:11:25.613Z,20.17
2022-12-14T13:13:59.179Z,21.35
2022-12-14T13:16:39.446Z,22.75
2022-12-14T13:19:48.805Z,24.73
2022-12-14T13:22:15.354Z,21.67
2022-12-14T13:24:59.247Z,29.25
2022-12-14T13:27:38.119Z,24.38
2022-12-14T13:30:23.084Z,22.33
2022-12-14T13:33:17.384Z,27.40
2022-12-14T13:36:07.085Z,22.50
2022-12-14T13:38:52.145Z,23.45
2022-12-14T13:41:22.191Z,25.25
2022-12-14T13:44:10.172Z,21.23
2022-12-14T13:46:37.476Z,21.95
2022-12-14T13:49:09.428Z,23.90
2022-12-14T13:51:38.663Z,25.95
2022-12-14T13:54:30.212Z,23.00
2022-12-14T13:57:21.379Z,21.42
2022-12-14T13:59:53.746Z,22.13
2022-12-14T14:02:29.987Z,22.52
2022-12-14T14:05:15.455Z,23.30
2022-12-14T14:08:26.341Z,26.52
2022-12-14T14:11:13.900Z,24.50
2022-12-14T14:13:45.197Z,23.00
2022-12-14T14:16:28.519Z,23.77
2022-12-14T14:19:03.069Z,21.17
2022-12-14T14:21:58.876Z,27.13
2022-12-14T14:24:28.603Z,22.58
2022-12-14T14:27:11.745Z,23.58
2022-12-14T14:29:49.403Z,22.23
2022-12-14T14:32:42.201Z,22.52
2022-12-14T14:35:24.553Z,22.38
2022-12-14T14:38:02.170Z,21.33
2022-12-14T14:41:06.528Z,21.85
2022-12-14T14:43:25.579Z,23.45
2022-12-14T14:45:55.627Z,25.95
2022-12-14T14:48:36.839Z,23.92
2022-12-14T14:51:20.725Z,20.17
2022-12-14T14:53:50.510Z,23.17
2022-12-14T14:56:29.982Z,23.48
2022-12-14T14:59:18.018Z,25.80
2022-12-14T15:02:01.020Z,24.85
2022-12-14T15:04:57.075Z,25.45
2022-12-14T15:07:30.206Z,23.52
2022-12-14T15:10:22.702Z,26.75
2022-12-14T15:12:57.321Z,26.17
2022-12-14T15:15:32.727Z,23.15
2022-12-14T15:18:15.416Z,25.55
2022-12-14T15:20:54.931Z,32.13
2022-12-14T15:23:23.005Z,23.88
2022-12-14T15:26:02.277Z,27.05
2022-12-14T15:28:29.817Z,27.77
2022-12-14T15:30:58.691Z,26.58
2022-12-14T15:33:34.337Z,23.85
2022-12-14T15:36:14.178Z,19.00
2022-12-14T15:38:52.910Z,27.33
2022-12-14T15:41:21.268Z,26.20
2022-12-14T15:43:53.758Z,25.55
2022-12-14T15:46:34.481Z,29.83
2022-12-14T15:49:09.055Z,26.08
2022-12-14T15:51:42.715Z,25.38
2022-12-14T15:54:19.912Z,22.63
2022-12-14T15:56:58.832Z,28.77
2022-12-14T15:59:31.578Z,29.98
2022-12-14T16:02:07.564Z,26.40
2022-12-14T16:04:37.149Z,26.80
2022-12-14T16:07:18.303Z,28.20
2022-12-14T16:09:55.316Z,30.48
2022-12-14T16:12:44.273Z,25.23
2022-12-14T16:15:25.896Z,26.65
2022-12-14T16:18:01.506Z,27.23
2022-12-14T16:20:32.677Z,27.63
2022-12-14T16:23:14.819Z,31.35
2022-12-14T16:26:01.378Z,27.10
2022-12-14T16:28:34.649Z,26.88
2022-12-14T16:31:18.121Z,28.70
2022-12-14T16:33:45.514Z,25.80
2022-12-14T16:36:25.921Z,24.58
2022-12-14T16:39:23.331Z,25.38
2022-12-14T16:41:58.590Z,30.23
2022-12-14T16:44:34.386Z,27.45
2022-12-14T16:47:01.521Z,28.48
2022-12-14T16:49:34.711Z,29.67
2022-12-14T16:52:17.386Z,28.75
2022-12-14T16:55:04.330Z,27.20
2022-12-14T16:57:31.437Z,31.88
2022-12-14T17:00:04.643Z,32.85
2022-12-14T17:02:40.907Z,29.25
2022-12-14T17:05:20.668Z,30.05
2022-12-14T17:07:47.771Z,28.58
2022-12-14T17:10:30.689Z,30.35
2022-12-14T17:13:04.219Z,31.50
2022-12-14T17:15:34.566Z,30.27
2022-12-14T17:18:05.274Z,31.23
2022-12-14T17:20:40.077Z,30.00
2022-12-14T17:23:10.410Z,25.95
2022-12-14T17:25:38.145Z,28.98
2022-12-14T17:28:23.313Z,29.98
2022-12-14T17:30:52.302Z,31.58
2022-12-14T17:33:20.054Z,29.33
2022-12-14T17:35:47.354Z,29.58
2022-12-14T17:38:20.014Z,32.25
2022-12-14T17:40:50.256Z,31.42
2022-12-14T17:43:26.722Z,33.67
2022-12-14T17:45:55.601Z,31.23
2022-12-14T17:48:23.220Z,23.95
2022-12-14T17:50:52.049Z,32.67
2022-12-14T17:53:26.461Z,29.05
2022-12-14T17:55:54.616Z,27.50
2022-12-14T17:58:25.494Z,31.45
2022-12-14T18:01:03.532Z,34.33
2022-12-14T18:03:36.662Z,34.95
2022-12-14T18:06:05.133Z,33.88
2022-12-14T18:08:33.080Z,35.53
2022-12-14T18:11:13.348Z,35.55
2022-12-14T18:13:42.552Z,33.92
2022-12-14T18:16:16.215Z,31.48
2022-12-14T18:18:45.961Z,34.00
2022-12-14T18:21:18.592Z,36.42
2022-12-14T18:23:47.738Z,29.55
2022-12-14T18:26:23.198Z,33.03
2022-12-14T18:28:54.838Z,40.30
2022-12-14T18:31:36.657Z,32.65
2022-12-14T18:34:05.474Z,34.03
2022-12-14T18:36:33.926Z,37.90
2022-12-14T18:39:01.902Z,38.95
2022-12-14T18:41:35.037Z,31.27
2022-12-14T18:44:03.334Z,37.70
2022-12-14T18:46:31.246Z,34.75
2022-12-14T18:48:58.881Z,39.03
2022-12-14T18:51:27.476Z,39.40
2022-12-14T18:53:59.216Z,34.25
2022-12-14T18:56:28.311Z,37.05
2022-12-14T18:58:56.815Z,30.23
2022-12-14T19:01:26.249Z,36.67
2022-12-14T19:03:54.886Z,35.38
2022-12-14T19:09:15.656Z,36.63
2022-12-14T19:11:44.921Z,39.13
2022-12-14T19:14:13.263Z,36.05
2022-12-14T19:16:41.592Z,44.35
2022-12-14T19:19:09.736Z,33.53
2022-12-14T19:21:37.824Z,37.88
2022-12-14T19:24:09.246Z,39.70
2022-12-14T19:26:39.652Z,35.72
2022-12-14T19:29:07.978Z,37.03
2022-12-14T19:31:35.964Z,37.90
2022-12-14T19:34:07.544Z,36.08
2022-12-14T19:36:37.436Z,35.22
2022-12-14T19:39:06.026Z,32.80
2022-12-14T19:41:34.264Z,35.65
2022-12-14T19:44:05.164Z,39.47
2022-12-14T19:46:33.604Z,32.20
2022-12-14T19:49:04.262Z,41.63
2022-12-14T19:51:32.330Z,44.08
2022-12-14T19:54:03.588Z,42.95
2022-12-14T19:56:32.628Z,38.60
2022-12-14T19:59:06.775Z,42.03
2022-12-14T20:01:41.948Z,39.40
2022-12-14T20:04:12.935Z,41.95
2022-12-14T20:06:41.217Z,39.45
2022-12-14T20:09:09.336Z,39.15
2022-12-14T20:11:37.588Z,42.10
2022-12-14T20:14:05.936Z,45.80
2022-12-14T20:16:34.396Z,44.10
2022-12-14T20:19:02.537Z,39.83
2022-12-14T20:21:34.835Z,44.10
2022-12-14T20:24:03.366Z,39.95
2022-12-14T20:26:33.394Z,40.40
2022-12-14T20:29:02.109Z,40.60
2022-12-14T20:31:30.309Z,40.85
2022-12-14T20:34:02.536Z,45.90
2022-12-14T20:36:32.128Z,42.60
2022-12-14T20:39:02.109Z,46.90
2022-12-14T20:41:32.527Z,41.33
2022-12-14T20:44:05.483Z,43.75
2022-12-14T20:46:38.940Z,41.70
2022-12-14T20:49:18.798Z,43.40
2022-12-14T20:51:48.502Z,40.20
2022-12-14T20:54:19.147Z,36.15
2022-12-14T20:56:49.419Z,51.20
2022-12-14T20:59:18.215Z,46.15
2022-12-14T21:01:51.851Z,53.05
2022-12-14T21:04:22.958Z,47.83
2022-12-14T21:06:50.945Z,47.63
2022-12-14T21:09:18.335Z,47.15
2022-12-14T21:12:06.966Z,49.95
2022-12-14T21:14:37.285Z,43.30
2022-12-14T21:17:06.396Z,47.50
2022-12-14T21:19:36.231Z,45.63
2022-12-14T21:22:05.984Z,41.55
2022-12-14T21:27:26.811Z,44.40
2022-12-14T21:29:55.436Z,48.92
2022-12-14T21:32:23.016Z,40.70
2022-12-14T21:34:50.634Z,50.45
2022-12-14T21:37:18.105Z,46.70
2022-12-14T21:39:52.248Z,48.25
2022-12-14T21:42:26.252Z,46.85
2022-12-14T21:44:54.503Z,41.67
2022-12-14T21:47:27.290Z,44.45
2022-12-14T21:49:55.272Z,43.08
2022-12-14T21:52:24.948Z,47.35
2022-12-14T21:54:51.958Z,45.42
2022-12-14T21:57:42.298Z,51.13
2022-12-14T22:00:10.621Z,37.20
2022-12-14T22:02:37.831Z,41.35
2022-12-14T22:05:05.381Z,45.10
2022-12-14T22:07:34.457Z,45.58
2022-12-14T22:10:01.501Z,40.50
2022-12-14T22:12:28.704Z,42.45
2022-12-14T22:14:55.816Z,36.75
2022-12-14T22:17:22.814Z,41.78
2022-12-14T22:19:51.080Z,38.13
2022-12-14T22:22:18.315Z,46.22
2022-12-14T22:24:48.835Z,43.72
2022-12-14T22:27:15.916Z,43.40
2022-12-14T22:29:42.883Z,41.40
2022-12-14T22:32:11.951Z,38.90
2022-12-14T22:34:39.078Z,42.30
2022-12-14T22:37:06.378Z,39.78
2022-12-14T22:39:33.396Z,40.75
2022-12-14T22:42:00.432Z,46.47
2022-12-14T22:44:27.524Z,38.15
2022-12-14T22:46:54.635Z,46.60
2022-12-14T22:49:21.675Z,41.78
2022-12-14T22:51:48.715Z,41.03
2022-12-14T22:54:27.569Z,42.63
2022-12-14T22:57:07.919Z,48.92
2022-12-14T22:59:42.016Z,46.92
2022-12-14T23:02:09.424Z,45.08
2022-12-14T23:04:38.149Z,45.25
2022-12-14T23:07:05.955Z,43.00
2022-12-14T23:09:52.528Z,42.22
2022-12-14T23:12:38.860Z,40.53
2022-12-14T23:15:25.055Z,46.50
2022-12-14T23:18:19.027Z,50.47
2022-12-14T23:21:04.615Z,42.35
2022-12-14T23:23:50.395Z,46.10
2022-12-14T23:26:36.255Z,44.15
2022-12-14T23:29:21.982Z,49.25
2022-12-14T23:32:07.845Z,54.03
2022-12-14T23:34:53.496Z,46.08
2022-12-14T23:37:38.939Z,42.70
2022-12-14T23:40:25.204Z,45.60
2022-12-14T23:43:10.705Z,41.28
2022-12-14T23:45:56.505Z,49.45
2022-12-14T23:48:42.124Z,41.40
2022-12-14T23:51:27.697Z,49.45
2022-12-14T23:54:13.398Z,48.22
2022-12-14T23:56:58.979Z,42.60
2022-12-14T23:59:44.347Z,50.50
